TimeCDT,TemperatureF,Dew PointF,Humidity,Sea Level PressureIn,VisibilityMPH,Wind Direction,Wind SpeedMPH,Gust SpeedMPH,PrecipitationIn,Events,Conditions,WindDirDegrees,DateUTC
12:15 AM,60.8,59.0,94,29.90,10.0,NNW,4.6,-,N/A,,Clear,340,2012-10-01 05:15:00
12:35 AM,60.8,57.2,88,29.89,10.0,NNW,4.6,-,N/A,,Clear,340,2012-10-01 05:35:00
12:55 AM,60.8,57.2,88,29.88,10.0,North,3.5,-,N/A,,Clear,10,2012-10-01 05:55:00
1:15 AM,59.0,57.2,94,29.88,10.0,North,3.5,-,N/A,,Clear,350,2012-10-01 06:15:00
1:35 AM,59.0,57.2,94,29.87,10.0,North,3.5,-,N/A,,Clear,360,2012-10-01 06:35:00
1:55 AM,59.0,57.2,94,29.87,10.0,NW,5.8,-,N/A,,Clear,320,2012-10-01 06:55:00
2:35 AM,59.0,55.4,88,29.87,10.0,NW,5.8,-,N/A,,Clear,310,2012-10-01 07:35:00
3:15 AM,59.0,55.4,88,29.86,10.0,NNW,5.8,-,N/A,,Clear,340,2012-10-01 08:15:00
3:35 AM,59.0,55.4,88,29.86,10.0,North,5.8,-,N/A,,Clear,350,2012-10-01 08:35:00
3:55 AM,59.0,55.4,88,29.87,10.0,NNW,5.8,-,N/A,,Clear,340,2012-10-01 08:55:00
4:15 AM,59.0,55.4,88,29.86,10.0,NNW,6.9,-,N/A,,Clear,340,2012-10-01 09:15:00
4:55 AM,59.0,55.4,88,29.87,10.0,NNW,6.9,-,N/A,,Clear,330,2012-10-01 09:55:00
5:15 AM,59.0,55.4,88,29.86,10.0,North,5.8,-,N/A,,Clear,350,2012-10-01 10:15:00
5:35 AM,59.0,55.4,88,29.87,10.0,North,6.9,-,N/A,,Clear,350,2012-10-01 10:35:00
6:15 AM,59.0,55.4,88,29.87,10.0,NNW,6.9,-,N/A,,Clear,330,2012-10-01 11:15:00
6:35 AM,59.0,55.4,88,29.87,10.0,NNW,6.9,-,N/A,,Clear,330,2012-10-01 11:35:00
6:55 AM,57.2,53.6,88,29.88,10.0,NNW,8.1,-,N/A,,Clear,330,2012-10-01 11:55:00
7:15 AM,57.2,53.6,88,29.88,10.0,NNW,8.1,-,N/A,,Clear,330,2012-10-01 12:15:00
7:35 AM,57.2,53.6,88,29.88,10.0,NNW,8.1,-,N/A,,Clear,340,2012-10-01 12:35:00
7:55 AM,57.2,53.6,88,29.88,10.0,NNW,6.9,-,N/A,,Clear,330,2012-10-01 12:55:00
8:15 AM,59.0,53.6,82,29.89,10.0,North,-9999.0,-,N/A,,Clear,0,2012-10-01 13:15:00
8:35 AM,59.0,53.6,82,29.89,10.0,North,6.9,-,N/A,,Clear,350,2012-10-01 13:35:00
9:15 AM,62.6,55.4,77,29.89,10.0,North,-9999.0,-,N/A,,Clear,0,2012-10-01 14:15:00
9:35 AM,62.6,55.4,77,29.90,10.0,North,-9999.0,-,N/A,,Clear,0,2012-10-01 14:35:00
9:55 AM,64.4,55.4,73,29.90,10.0,North,-9999.0,-,N/A,,Clear,0,2012-10-01 14:55:00
10:15 AM,68.0,55.4,64,29.90,10.0,North,-9999.0,-,N/A,,Clear,0,2012-10-01 15:15:00
10:35 AM,69.8,57.2,64,29.90,10.0,North,-9999.0,-,N/A,,Clear,0,2012-10-01 15:35:00
10:55 AM,71.6,57.2,60,29.90,10.0,North,-9999.0,-,N/A,,Clear,0,2012-10-01 15:55:00
11:15 AM,73.4,57.2,57,29.90,10.0,North,-9999.0,-,N/A,,Clear,0,2012-10-01 16:15:00
11:35 AM,75.2,57.2,53,29.90,10.0,North,-9999.0,-,N/A,,Clear,0,2012-10-01 16:35:00
12:15 PM,77.0,55.4,47,29.89,10.0,North,-9999.0,-,N/A,,Clear,0,2012-10-01 17:15:00
12:35 PM,78.8,53.6,42,29.89,10.0,North,-9999.0,-,N/A,,Clear,0,2012-10-01 17:35:00
12:55 PM,78.8,53.6,42,29.89,10.0,North,-9999.0,-,N/A,,Clear,0,2012-10-01 17:55:00
1:15 PM,80.6,53.6,39,29.88,10.0,North,-9999.0,-,N/A,,Clear,0,2012-10-01 18:15:00
1:35 PM,80.6,53.6,39,29.86,10.0,North,-9999.0,-,N/A,,Clear,0,2012-10-01 18:35:00
1:55 PM,80.6,53.6,39,29.85,10.0,North,-9999.0,-,N/A,,Clear,0,2012-10-01 18:55:00
2:15 PM,82.4,53.6,37,29.84,10.0,North,-9999.0,-,N/A,,Clear,0,2012-10-01 19:15:00
2:55 PM,82.4,51.8,35,29.84,10.0,North,10.4,-,N/A,,Clear,10,2012-10-01 19:55:00
3:15 PM,80.6,51.8,37,29.83,10.0,North,10.4,-,N/A,,Scattered Clouds,350,2012-10-01 20:15:00
3:35 PM,82.4,53.6,37,29.82,10.0,North,10.4,16.1,N/A,,Scattered Clouds,360,2012-10-01 20:35:00
3:55 PM,82.4,51.8,35,29.82,10.0,North,-9999.0,-,N/A,,Scattered Clouds,0,2012-10-01 20:55:00
4:15 PM,80.6,51.8,37,29.82,10.0,North,10.4,-,N/A,,Scattered Clouds,350,2012-10-01 21:15:00
4:35 PM,80.6,51.8,37,29.82,10.0,North,13.8,-,N/A,,Scattered Clouds,360,2012-10-01 21:35:00
4:55 PM,78.8,51.8,39,29.83,10.0,North,11.5,-,N/A,,Mostly Cloudy,350,2012-10-01 21:55:00
5:15 PM,77.0,53.6,44,29.84,10.0,NNW,8.1,-,N/A,,Overcast,340,2012-10-01 22:15:00
5:35 PM,75.2,57.2,53,29.84,10.0,North,-9999.0,-,N/A,Rain,Light Rain,0,2012-10-01 22:35:00
5:55 PM,77.0,55.4,47,29.85,10.0,North,-9999.0,-,N/A,,Scattered Clouds,0,2012-10-01 22:55:00
6:15 PM,73.4,57.2,57,29.86,10.0,North,-9999.0,-,N/A,,Clear,0,2012-10-01 23:15:00
6:35 PM,73.4,55.4,53,29.86,10.0,North,-9999.0,-,N/A,,Clear,0,2012-10-01 23:35:00
6:55 PM,71.6,53.6,53,29.87,10.0,North,-9999.0,-,N/A,,Scattered Clouds,0,2012-10-01 23:55:00
7:15 PM,69.8,55.4,60,29.88,10.0,North,-9999.0,-,N/A,,Scattered Clouds,0,2012-10-02 00:15:00
7:35 PM,68.0,55.4,64,29.88,10.0,North,-9999.0,-,N/A,,Clear,0,2012-10-02 00:35:00
7:55 PM,68.0,59.0,73,29.89,10.0,North,-9999.0,-,N/A,,Clear,0,2012-10-02 00:55:00
8:15 PM,66.2,59.0,78,29.90,10.0,North,10.4,-,N/A,,Clear,350,2012-10-02 01:15:00
8:35 PM,66.2,59.0,78,29.90,10.0,NNW,6.9,-,N/A,,Clear,340,2012-10-02 01:35:00
8:55 PM,66.2,60.8,83,29.91,10.0,North,-9999.0,-,N/A,,Scattered Clouds,0,2012-10-02 01:55:00
9:15 PM,66.2,60.8,83,29.91,10.0,NNW,10.4,-,N/A,Rain,Light Rain,340,2012-10-02 02:15:00
9:35 PM,66.2,60.8,83,29.92,10.0,North,-9999.0,-,N/A,,Light Drizzle,0,2012-10-02 02:35:00
9:55 PM,68.0,57.2,68,29.93,10.0,North,-9999.0,-,N/A,,Overcast,0,2012-10-02 02:55:00
10:15 PM,62.6,60.8,94,29.94,10.0,North,-9999.0,-,N/A,Rain,Light Rain,0,2012-10-02 03:15:00
10:35 PM,62.6,59.0,88,29.94,10.0,NNW,9.2,-,N/A,,Overcast,330,2012-10-02 03:35:00
10:55 PM,62.6,59.0,88,29.93,10.0,NW,6.9,-,N/A,,Overcast,320,2012-10-02 03:55:00
11:15 PM,62.6,59.0,88,29.93,10.0,NW,6.9,-,N/A,,Overcast,320,2012-10-02 04:15:00
11:35 PM,62.6,59.0,88,29.93,10.0,NW,6.9,-,N/A,,Overcast,320,2012-10-02 04:35:00
11:55 PM,62.6,59.0,88,29.94,10.0,NW,5.8,-,N/A,,Overcast,320,2012-10-02 04:55:00